createdAt,value
2018-11-11T00:00:23.137Z,0.00
2018-11-11T00:01:23.116Z,0.00
2018-11-11T00:02:23.148Z,0.00
2018-11-11T00:03:23.092Z,0.00
2018-11-11T00:04:23.084Z,0.00
2018-11-11T00:05:23.088Z,0.00
2018-11-11T00:06:23.065Z,0.00
2018-11-11T00:07:23.049Z,0.00
2018-11-11T00:08:23.098Z,0.00
2018-11-11T00:09:23.030Z,0.00
2018-11-11T00:10:23.031Z,0.00
2018-11-11T00:11:23.010Z,0.00
2018-11-11T00:12:23.001Z,0.00
2018-11-11T00:13:22.985Z,0.00
2018-11-11T00:14:22.999Z,0.00
2018-11-11T00:15:22.978Z,0.00
2018-11-11T00:16:22.952Z,0.00
2018-11-11T00:17:22.944Z,0.00
2018-11-11T00:18:22.940Z,0.00
2018-11-11T00:19:22.919Z,0.00
2018-11-11T00:20:22.935Z,0.00
2018-11-11T00:21:22.899Z,0.00
2018-11-11T00:22:22.890Z,0.00
2018-11-11T00:23:22.896Z,0.00
2018-11-11T00:24:22.863Z,0.00
2018-11-11T00:25:22.869Z,0.00
2018-11-11T00:26:22.853Z,0.00
2018-11-11T00:27:22.861Z,0.00
2018-11-11T00:28:22.881Z,0.00
2018-11-11T00:29:22.813Z,0.00
2018-11-11T00:30:22.815Z,0.00
2018-11-11T00:31:22.789Z,0.00
2018-11-11T00:32:22.788Z,0.00
2018-11-11T00:33:22.771Z,0.00
2018-11-11T00:34:22.779Z,0.00
2018-11-11T00:35:22.760Z,0.00
2018-11-11T00:36:22.736Z,0.00
2018-11-11T00:37:22.724Z,0.00
2018-11-11T00:38:22.712Z,0.00
2018-11-11T00:39:22.705Z,0.00
2018-11-11T00:40:22.747Z,0.00
2018-11-11T00:41:22.682Z,0.00
2018-11-11T00:42:22.676Z,0.00
2018-11-11T00:43:22.661Z,0.00
2018-11-11T00:44:22.668Z,0.00
2018-11-11T00:45:22.652Z,0.00
2018-11-11T00:46:22.652Z,0.00
2018-11-11T00:47:22.617Z,0.00
2018-11-11T00:48:22.606Z,0.00
2018-11-11T00:49:22.611Z,0.00
2018-11-11T00:50:22.597Z,0.00
2018-11-11T00:51:22.586Z,0.00
2018-11-11T00:52:22.573Z,0.00
2018-11-11T00:53:22.575Z,0.00
2018-11-11T00:54:22.545Z,0.00
2018-11-11T00:55:22.544Z,0.00
2018-11-11T00:56:22.520Z,0.00
2018-11-11T00:57:22.508Z,0.00
2018-11-11T00:58:22.509Z,0.00
2018-11-11T00:59:22.536Z,0.00
2018-11-11T01:00:22.489Z,0.00
2018-11-11T01:01:22.507Z,0.00
2018-11-11T01:02:22.453Z,0.00
2018-11-11T01:03:22.441Z,0.00
2018-11-11T01:04:22.439Z,0.00
2018-11-11T01:05:22.453Z,0.00
2018-11-11T01:06:22.439Z,0.00
2018-11-11T01:07:22.398Z,0.00
2018-11-11T01:08:22.389Z,0.00
2018-11-11T01:09:22.380Z,0.00
2018-11-11T01:10:22.386Z,0.00
2018-11-11T01:11:22.374Z,0.00
2018-11-11T01:12:22.394Z,0.00
2018-11-11T01:13:22.354Z,0.00
2018-11-11T01:14:22.327Z,0.00
2018-11-11T01:15:22.320Z,0.00
2018-11-11T01:16:22.317Z,0.00
2018-11-11T01:17:22.292Z,0.00
2018-11-11T01:18:22.307Z,0.00
2018-11-11T01:19:22.270Z,0.00
2018-11-11T01:20:22.261Z,0.00
2018-11-11T01:21:22.263Z,0.00
2018-11-11T01:22:22.238Z,0.00
2018-11-11T01:23:22.245Z,0.00
2018-11-11T01:24:22.254Z,0.00
2018-11-11T01:25:22.206Z,0.00
2018-11-11T01:26:22.208Z,0.00
2018-11-11T01:27:22.184Z,0.00
2018-11-11T01:28:22.172Z,0.00
2018-11-11T01:29:22.165Z,0.00
2018-11-11T01:30:22.198Z,0.00
2018-11-11T01:31:22.156Z,0.00
2018-11-11T01:32:22.130Z,0.00
2018-11-11T01:33:22.149Z,0.00
2018-11-11T01:34:22.107Z,0.00
2018-11-11T01:35:22.103Z,0.00
2018-11-11T01:36:22.129Z,0.00
2018-11-11T01:37:22.078Z,0.00
2018-11-11T01:38:22.065Z,0.00
2018-11-11T01:39:22.055Z,0.00
2018-11-11T01:40:22.059Z,0.00
2018-11-11T01:41:22.064Z,0.00
2018-11-11T01:42:22.021Z,0.00
2018-11-11T01:43:22.032Z,0.00
2018-11-11T01:44:22.001Z,0.00
2018-11-11T01:45:21.990Z,0.00
2018-11-11T01:46:22.014Z,0.00
2018-11-11T01:47:21.969Z,0.00
2018-11-11T01:48:21.956Z,0.00
2018-11-11T01:49:21.993Z,0.00
2018-11-11T01:50:21.942Z,0.00
2018-11-11T01:51:21.925Z,0.00
2018-11-11T01:52:21.930Z,0.00
2018-11-11T01:53:21.902Z,0.00
2018-11-11T01:54:21.908Z,0.00
2018-11-11T01:55:21.901Z,0.00
2018-11-11T01:56:21.872Z,0.00
2018-11-11T01:57:21.873Z,0.00
2018-11-11T01:58:21.857Z,0.00
2018-11-11T01:59:21.837Z,0.00
2018-11-11T02:00:21.827Z,0.00
2018-11-11T02:01:21.837Z,0.00
2018-11-11T02:02:21.820Z,0.00
2018-11-11T02:03:21.815Z,0.00
2018-11-11T02:04:21.820Z,0.00
2018-11-11T02:05:21.774Z,0.00
2018-11-11T02:06:21.762Z,0.00
2018-11-11T02:07:21.767Z,0.00
2018-11-11T02:08:21.757Z,0.00
2018-11-11T02:09:21.770Z,0.00
2018-11-11T02:10:21.729Z,0.00
2018-11-11T02:11:21.707Z,0.00
2018-11-11T02:12:21.714Z,0.00
2018-11-11T02:13:21.689Z,0.00
2018-11-11T02:14:21.677Z,0.00
2018-11-11T02:15:21.698Z,0.00
2018-11-11T02:16:21.667Z,0.00
2018-11-11T02:17:21.658Z,0.00
2018-11-11T02:18:21.634Z,0.00
2018-11-11T02:19:21.620Z,0.00
2018-11-11T02:20:21.620Z,0.00
2018-11-11T02:21:21.675Z,0.00
2018-11-11T02:22:21.630Z,0.00
2018-11-11T02:23:21.625Z,0.00
2018-11-11T02:24:21.570Z,0.00
2018-11-11T02:25:21.558Z,0.00
2018-11-11T02:26:21.552Z,0.00
2018-11-11T02:27:21.546Z,0.00
2018-11-11T02:28:21.547Z,0.00
2018-11-11T02:29:21.515Z,0.00
2018-11-11T02:30:21.505Z,0.00
2018-11-11T02:31:21.502Z,0.00
2018-11-11T02:32:21.492Z,0.00
2018-11-11T02:33:21.504Z,0.00
2018-11-11T02:34:21.503Z,0.00
2018-11-11T02:35:21.447Z,0.00
2018-11-11T02:36:21.438Z,0.00
2018-11-11T02:37:21.471Z,0.00
2018-11-11T02:38:21.420Z,0.00
2018-11-11T02:39:21.403Z,0.00
2018-11-11T02:40:21.421Z,0.00
2018-11-11T02:41:21.386Z,0.00
2018-11-11T02:42:21.387Z,0.00
2018-11-11T02:43:21.364Z,0.00
2018-11-11T02:44:21.350Z,0.00
2018-11-11T02:45:21.339Z,0.00
2018-11-11T02:46:21.365Z,0.00
2018-11-11T02:47:21.359Z,0.00
2018-11-11T02:48:21.308Z,0.00
2018-11-11T02:49:21.296Z,0.00
2018-11-11T02:50:21.286Z,0.00
2018-11-11T02:51:21.277Z,0.00
2018-11-11T02:52:21.281Z,0.00
2018-11-11T02:53:21.293Z,0.00
2018-11-11T02:57:50.912Z,0.00
2018-11-11T02:58:50.889Z,0.00
2018-11-11T02:59:50.877Z,0.00
2018-11-11T03:00:50.887Z,0.00
2018-11-11T03:01:50.921Z,0.00
2018-11-11T03:02:50.907Z,0.00
2018-11-11T03:03:50.841Z,0.00
2018-11-11T03:04:50.856Z,0.00
2018-11-11T03:05:50.816Z,0.00
2018-11-11T03:06:50.812Z,0.00
2018-11-11T03:07:50.874Z,0.00
2018-11-11T03:08:50.783Z,0.00
2018-11-11T03:09:50.790Z,0.00
2018-11-11T03:10:50.760Z,0.00
2018-11-11T03:11:50.753Z,0.00
2018-11-11T03:12:50.777Z,0.00
2018-11-11T03:13:50.729Z,0.00
2018-11-11T03:14:50.717Z,0.00
2018-11-11T03:15:50.709Z,0.00
2018-11-11T03:16:50.725Z,0.00
2018-11-11T03:17:50.703Z,0.00
2018-11-11T03:18:50.713Z,0.00
2018-11-11T03:19:50.664Z,0.00
2018-11-11T03:20:50.653Z,0.00
2018-11-11T03:21:50.646Z,0.00
2018-11-11T03:22:50.651Z,0.00
2018-11-11T03:23:50.623Z,0.00
2018-11-11T03:24:50.623Z,0.00
2018-11-11T03:25:50.618Z,0.00
2018-11-11T03:26:50.596Z,0.00
2018-11-11T03:27:50.593Z,0.00
2018-11-11T03:28:50.567Z,0.00
2018-11-11T03:29:50.556Z,0.00
2018-11-11T03:30:50.555Z,0.00
2018-11-11T03:31:50.561Z,0.00
2018-11-11T03:32:50.539Z,0.00
2018-11-11T03:33:50.523Z,0.00
2018-11-11T03:34:50.505Z,0.00
2018-11-11T03:35:50.494Z,0.00
2018-11-11T03:36:50.482Z,0.00
2018-11-11T03:37:50.501Z,0.00
2018-11-11T03:38:50.463Z,0.00
2018-11-11T03:39:50.451Z,0.00
2018-11-11T03:40:50.441Z,0.00
2018-11-11T03:41:50.428Z,0.00
2018-11-11T03:42:50.437Z,0.00
2018-11-11T03:43:50.446Z,0.00
2018-11-11T03:44:50.394Z,0.00
2018-11-11T03:45:50.399Z,0.00
2018-11-11T03:46:50.378Z,0.00
2018-11-11T03:47:50.379Z,0.00
2018-11-11T03:48:50.354Z,0.00
2018-11-11T03:49:50.354Z,0.00
2018-11-11T03:50:50.360Z,0.00
2018-11-11T03:51:50.321Z,0.00
2018-11-11T03:52:50.327Z,0.00
2018-11-11T03:53:50.312Z,0.00
2018-11-11T03:54:50.289Z,0.00
2018-11-11T03:55:50.277Z,0.00
2018-11-11T03:56:50.283Z,0.00
2018-11-11T03:57:50.273Z,0.00
2018-11-11T03:58:50.371Z,0.00
2018-11-11T03:59:50.235Z,0.00
2018-11-11T04:00:50.225Z,0.00
2018-11-11T04:01:50.215Z,0.00
2018-11-11T04:02:50.242Z,0.00
2018-11-11T04:03:50.195Z,0.00
2018-11-11T04:04:50.218Z,0.00
2018-11-11T04:05:50.169Z,0.00
2018-11-11T04:06:50.158Z,0.00
2018-11-11T04:07:50.161Z,0.00
2018-11-11T04:08:50.174Z,0.00
2018-11-11T04:09:50.136Z,0.00
2018-11-11T04:10:50.130Z,0.00
2018-11-11T04:11:50.106Z,0.00
2018-11-11T04:12:50.107Z,0.00
2018-11-11T04:13:50.087Z,0.00
2018-11-11T04:14:50.108Z,0.00
2018-11-11T04:15:50.079Z,0.00
2018-11-11T04:16:50.051Z,0.00
2018-11-11T04:17:50.068Z,0.00
2018-11-11T04:18:50.038Z,0.00
2018-11-11T04:19:50.021Z,0.00
2018-11-11T04:20:50.032Z,0.00
2018-11-11T04:21:50.001Z,0.00
2018-11-11T04:22:50.009Z,0.00
2018-11-11T04:23:49.983Z,0.00
2018-11-11T04:24:49.964Z,0.00
2018-11-11T04:25:49.968Z,0.00
2018-11-11T04:26:49.982Z,0.00
2018-11-11T04:27:49.946Z,0.00
2018-11-11T04:28:49.923Z,0.00
2018-11-11T04:29:49.913Z,0.00
2018-11-11T04:30:49.905Z,0.00
2018-11-11T04:31:49.895Z,0.00
2018-11-11T04:32:49.921Z,0.00
2018-11-11T04:33:49.870Z,0.00
2018-11-11T04:34:49.857Z,0.00
2018-11-11T04:35:49.847Z,0.00
2018-11-11T04:36:49.836Z,0.00
2018-11-11T04:37:49.840Z,0.00
2018-11-11T04:38:49.868Z,0.00
2018-11-11T04:39:49.808Z,0.00
2018-11-11T04:40:49.793Z,0.00
2018-11-11T04:41:49.803Z,0.00
2018-11-11T04:42:49.785Z,0.00
2018-11-11T04:43:49.761Z,0.00
2018-11-11T04:44:49.786Z,0.00
2018-11-11T04:45:49.847Z,0.00
2018-11-11T04:46:49.768Z,0.00
2018-11-11T04:47:49.740Z,0.00
2018-11-11T04:48:49.761Z,0.00
2018-11-11T04:49:49.701Z,0.00
2018-11-11T04:50:49.687Z,0.00
2018-11-11T04:51:49.695Z,0.00
2018-11-11T04:52:49.679Z,0.00
2018-11-11T04:53:49.654Z,0.00
2018-11-11T04:54:49.652Z,0.00
2018-11-11T04:55:49.633Z,0.00
2018-11-11T04:56:49.640Z,0.00
2018-11-11T04:57:49.625Z,0.00
2018-11-11T04:58:49.600Z,0.00
2018-11-11T04:59:49.589Z,0.00
2018-11-11T05:00:49.578Z,0.00
2018-11-11T05:01:49.567Z,0.00
2018-11-11T05:02:49.608Z,0.00
2018-11-11T05:03:49.547Z,0.00
2018-11-11T05:04:49.608Z,0.00
2018-11-11T05:05:49.524Z,0.00
2018-11-11T05:06:49.514Z,0.00
2018-11-11T05:07:49.519Z,0.00
2018-11-11T05:08:49.513Z,0.00
2018-11-11T05:09:49.500Z,0.00
2018-11-11T05:10:49.470Z,0.00
2018-11-11T05:11:49.458Z,0.00
2018-11-11T05:12:49.464Z,0.00
2018-11-11T05:13:49.441Z,0.00
2018-11-11T05:14:49.431Z,0.00
2018-11-11T05:15:49.430Z,0.00
2018-11-11T05:16:49.408Z,0.00
2018-11-11T05:17:49.412Z,0.00
2018-11-11T05:18:49.386Z,0.00
2018-11-11T05:19:49.374Z,0.00
2018-11-11T05:20:49.362Z,0.00
2018-11-11T05:21:49.451Z,0.00
2018-11-11T05:22:49.355Z,0.00
2018-11-11T05:23:49.329Z,0.00
2018-11-11T05:24:49.321Z,0.00
2018-11-11T05:25:49.340Z,0.00
2018-11-11T05:26:49.298Z,0.00
2018-11-11T05:27:49.315Z,0.00
2018-11-11T05:28:49.296Z,0.00
2018-11-11T05:29:49.265Z,0.00
2018-11-11T05:30:49.304Z,0.00
2018-11-11T05:31:49.245Z,0.00
2018-11-11T05:32:49.250Z,0.00
2018-11-11T05:33:49.259Z,0.00
2018-11-11T05:34:49.225Z,0.00
2018-11-11T05:35:49.201Z,0.00
2018-11-11T05:36:49.193Z,0.00
2018-11-11T05:37:49.196Z,0.00
2018-11-11T05:38:49.170Z,0.00
2018-11-11T05:39:49.160Z,0.00
2018-11-11T05:40:49.175Z,0.00
2018-11-11T05:41:49.140Z,0.00
2018-11-11T05:42:49.140Z,0.00
2018-11-11T05:43:49.127Z,0.00
2018-11-11T05:44:49.113Z,0.00
2018-11-11T05:45:49.096Z,0.00
2018-11-11T05:46:49.087Z,0.00
2018-11-11T05:47:49.120Z,0.00
2018-11-11T05:48:49.061Z,0.00
2018-11-11T05:49:49.056Z,0.00
2018-11-11T05:50:49.040Z,0.00
2018-11-11T05:51:49.035Z,0.00
2018-11-11T05:52:49.036Z,0.00
2018-11-11T05:53:49.052Z,0.00
2018-11-11T05:54:48.999Z,0.00
2018-11-11T05:55:48.987Z,0.00
2018-11-11T05:56:48.976Z,0.00
2018-11-11T05:57:48.968Z,0.00
2018-11-11T05:58:48.968Z,0.00
2018-11-11T05:59:48.977Z,0.00
2018-11-11T06:00:48.933Z,0.00
2018-11-11T06:01:48.941Z,4.00
2018-11-11T06:02:48.922Z,4.00
2018-11-11T06:03:48.927Z,0.00
2018-11-11T06:04:48.893Z,4.00
2018-11-11T06:05:48.950Z,4.00
2018-11-11T06:06:48.870Z,4.00
2018-11-11T06:07:48.858Z,4.00
2018-11-11T06:08:48.930Z,8.00
2018-11-11T06:09:48.836Z,12.00
2018-11-11T06:10:48.827Z,12.00
2018-11-11T06:11:48.883Z,16.00
2018-11-11T06:12:48.809Z,12.00
2018-11-11T06:13:48.807Z,20.00
2018-11-11T06:14:48.792Z,20.00
2018-11-11T06:15:48.779Z,24.00
2018-11-11T06:16:48.762Z,28.00
2018-11-11T06:17:48.780Z,32.00
2018-11-11T06:18:48.766Z,40.00
2018-11-11T06:19:48.732Z,48.00
2018-11-11T06:20:48.725Z,60.00
2018-11-11T06:21:48.731Z,64.00
2018-11-11T06:22:48.729Z,72.00
2018-11-11T06:23:48.699Z,76.00
2018-11-11T06:24:48.705Z,88.00
2018-11-11T06:25:48.667Z,108.00
2018-11-11T06:26:48.666Z,132.00
2018-11-11T06:27:48.645Z,156.00
2018-11-11T06:28:48.647Z,164.00
2018-11-11T06:29:48.623Z,180.00
2018-11-11T06:30:48.644Z,204.00
2018-11-11T06:31:48.619Z,228.00
2018-11-11T06:32:48.601Z,264.00
2018-11-11T06:33:48.621Z,292.00
2018-11-11T06:34:48.567Z,312.00
2018-11-11T06:35:48.558Z,340.00
2018-11-11T06:36:48.563Z,360.00
2018-11-11T06:37:48.536Z,388.00
2018-11-11T06:38:48.545Z,432.00
2018-11-11T06:39:48.519Z,476.00
2018-11-11T06:40:48.506Z,512.00
2018-11-11T06:41:48.496Z,552.00
2018-11-11T06:42:48.601Z,568.00
2018-11-11T06:43:48.485Z,580.00
2018-11-11T06:44:48.483Z,580.00
2018-11-11T06:45:48.450Z,568.00
2018-11-11T06:46:48.442Z,552.00
2018-11-11T06:47:48.449Z,532.00
2018-11-11T06:48:48.447Z,536.00
2018-11-11T06:49:48.409Z,548.00
2018-11-11T06:50:48.409Z,544.00
2018-11-11T06:51:48.386Z,536.00
2018-11-11T06:52:48.429Z,512.00
2018-11-11T06:53:48.383Z,512.00
2018-11-11T06:54:48.355Z,548.00
2018-11-11T06:55:48.377Z,568.00
2018-11-11T06:56:48.337Z,580.00
2018-11-11T06:57:48.331Z,596.00
2018-11-11T06:58:48.327Z,624.00
2018-11-11T06:59:48.300Z,688.00
2018-11-11T07:00:48.300Z,740.00
2018-11-11T07:01:48.313Z,792.00
2018-11-11T07:02:48.288Z,772.00
2018-11-11T07:03:48.274Z,712.00
2018-11-11T07:04:48.245Z,720.00
2018-11-11T07:05:48.241Z,804.00
2018-11-11T07:06:48.223Z,984.00
2018-11-11T07:07:48.248Z,1200.00
2018-11-11T07:08:48.215Z,1320.00
2018-11-11T07:09:48.192Z,1436.00
2018-11-11T07:10:48.182Z,1540.00
2018-11-11T07:11:48.172Z,1560.00
2018-11-11T07:12:48.162Z,1616.00
2018-11-11T07:13:48.257Z,1724.00
2018-11-11T07:14:48.144Z,1932.00
2018-11-11T07:15:48.128Z,2036.00
2018-11-11T07:16:48.119Z,2108.00
2018-11-11T07:17:48.106Z,2024.00
2018-11-11T07:18:48.107Z,1764.00
2018-11-11T07:19:48.098Z,1508.00
2018-11-11T07:20:48.093Z,1312.00
2018-11-11T07:21:48.065Z,1288.00
2018-11-11T07:22:48.106Z,1316.00
2018-11-11T07:23:48.169Z,1396.00
2018-11-11T07:24:48.036Z,1488.00
2018-11-11T07:25:48.025Z,1592.00
2018-11-11T07:26:48.052Z,1728.00
2018-11-11T07:27:47.998Z,1856.00
2018-11-11T07:28:48.009Z,1956.00
2018-11-11T07:29:47.978Z,1984.00
2018-11-11T07:30:47.971Z,1996.00
2018-11-11T07:31:47.959Z,1912.00
2018-11-11T07:32:47.946Z,1852.00
2018-11-11T07:33:48.003Z,1860.00
2018-11-11T07:34:47.942Z,2004.00
2018-11-11T07:35:47.945Z,2416.00
2018-11-11T07:36:47.908Z,3020.00
2018-11-11T07:37:47.909Z,3400.00
2018-11-11T07:38:47.907Z,3956.00
2018-11-11T07:39:47.899Z,4284.00
2018-11-11T07:40:47.867Z,4088.00
2018-11-11T07:41:47.849Z,3844.00
2018-11-11T07:42:47.838Z,3988.00
2018-11-11T07:43:47.876Z,4348.00
2018-11-11T07:44:47.864Z,4464.00
2018-11-11T07:45:47.844Z,4080.00
2018-11-11T07:46:47.803Z,3528.00
2018-11-11T07:47:47.794Z,3184.00
2018-11-11T07:48:47.797Z,3120.00
2018-11-11T07:49:47.792Z,3176.00
2018-11-11T07:50:47.784Z,3188.00
2018-11-11T07:51:47.764Z,3612.00
2018-11-11T07:52:47.848Z,4088.00
2018-11-11T07:53:47.742Z,4588.00
2018-11-11T07:54:47.788Z,5264.00
2018-11-11T07:55:47.709Z,5848.00
2018-11-11T07:56:47.700Z,6428.00
2018-11-11T07:57:47.686Z,5968.00
2018-11-11T07:58:47.702Z,5488.00
2018-11-11T07:59:47.671Z,5152.00
2018-11-11T08:00:47.645Z,5120.00
2018-11-11T08:01:47.765Z,5020.00
2018-11-11T08:02:47.643Z,4760.00
2018-11-11T08:03:47.630Z,4600.00
2018-11-11T08:04:47.630Z,4608.00
2018-11-11T08:05:47.601Z,4704.00
2018-11-11T08:06:47.580Z,4872.00
2018-11-11T08:07:47.628Z,5144.00
2018-11-11T08:08:47.593Z,5464.00
2018-11-11T08:09:47.551Z,5712.00
2018-11-11T08:10:47.544Z,6204.00
2018-11-11T08:11:47.581Z,6980.00
2018-11-11T08:12:47.517Z,8228.00
2018-11-11T08:13:47.520Z,9160.00
2018-11-11T08:14:47.498Z,9096.00
2018-11-11T08:15:47.484Z,8596.00
2018-11-11T08:16:47.487Z,8196.00
2018-11-11T08:17:47.507Z,7992.00
2018-11-11T08:18:47.479Z,7992.00
2018-11-11T08:19:47.453Z,7936.00
2018-11-11T08:20:47.432Z,7376.00
2018-11-11T08:21:47.419Z,6944.00
2018-11-11T08:22:47.408Z,6984.00
2018-11-11T08:23:47.446Z,7172.00
2018-11-11T08:24:47.405Z,7484.00
2018-11-11T08:25:47.379Z,7792.00
2018-11-11T08:26:47.364Z,8216.00
2018-11-11T08:27:47.358Z,7928.00
2018-11-11T08:28:47.347Z,7104.00
2018-11-11T08:29:47.385Z,6308.00
2018-11-11T08:30:47.321Z,5676.00
2018-11-11T08:31:47.350Z,5000.00
2018-11-11T08:32:47.303Z,4568.00
2018-11-11T08:33:47.288Z,4532.00
2018-11-11T08:34:47.308Z,4776.00
2018-11-11T08:35:47.284Z,5268.00
2018-11-11T08:36:47.277Z,5644.00
2018-11-11T08:37:47.268Z,5184.00
2018-11-11T08:38:47.293Z,5048.00
2018-11-11T08:39:47.278Z,4768.00
2018-11-11T08:40:47.236Z,4328.00
2018-11-11T08:41:47.254Z,4152.00
2018-11-11T08:42:47.194Z,4176.00
2018-11-11T08:43:47.207Z,4232.00
2018-11-11T08:44:47.283Z,4380.00
2018-11-11T08:45:47.162Z,4308.00
2018-11-11T08:46:47.152Z,3976.00
2018-11-11T08:47:47.181Z,4304.00
2018-11-11T08:48:47.127Z,4896.00
2018-11-11T08:49:47.143Z,5552.00
2018-11-11T08:50:47.106Z,5864.00
2018-11-11T08:51:47.119Z,6260.00
2018-11-11T08:52:47.086Z,6532.00
2018-11-11T08:53:47.076Z,6476.00
2018-11-11T08:54:47.079Z,6080.00
2018-11-11T08:55:47.100Z,5728.00
2018-11-11T08:56:47.045Z,6020.00
2018-11-11T08:57:47.068Z,6964.00
2018-11-11T08:58:47.044Z,7424.00
2018-11-11T08:59:47.022Z,6904.00
2018-11-11T09:00:47.057Z,6500.00
2018-11-11T09:01:47.028Z,6444.00
2018-11-11T09:02:47.022Z,6268.00
2018-11-11T09:03:46.968Z,6380.00
2018-11-11T09:04:46.999Z,6780.00
2018-11-11T09:05:46.960Z,7580.00
2018-11-11T09:06:46.952Z,8428.00
2018-11-11T09:07:46.941Z,9008.00
2018-11-11T09:08:46.948Z,8964.00
2018-11-11T09:09:46.901Z,8584.00
2018-11-11T09:10:46.975Z,8764.00
2018-11-11T09:11:46.931Z,8264.00
2018-11-11T09:12:46.872Z,7620.00
2018-11-11T09:13:46.868Z,7656.00
2018-11-11T09:14:46.857Z,7480.00
2018-11-11T09:15:46.855Z,7400.00
2018-11-11T09:16:46.863Z,7880.00
2018-11-11T09:17:46.813Z,8400.00
2018-11-11T09:18:46.904Z,9004.00
2018-11-11T09:19:46.837Z,9216.00
2018-11-11T09:20:46.836Z,9480.00
2018-11-11T09:21:46.771Z,9664.00
2018-11-11T09:22:46.761Z,10172.00
2018-11-11T09:23:46.846Z,10612.00
2018-11-11T09:24:46.771Z,10256.00
2018-11-11T09:25:46.757Z,9316.00
2018-11-11T09:26:46.727Z,8880.00
2018-11-11T09:27:46.728Z,8284.00
2018-11-11T09:28:46.696Z,7536.00
2018-11-11T09:29:46.811Z,7536.00
2018-11-11T09:30:46.739Z,8152.00
2018-11-11T09:31:46.696Z,8296.00
2018-11-11T09:32:46.717Z,7824.00
2018-11-11T09:33:46.655Z,7676.00
2018-11-11T09:34:46.689Z,7760.00
2018-11-11T09:35:46.641Z,7660.00
2018-11-11T09:36:46.615Z,7276.00
2018-11-11T09:37:46.596Z,7348.00
2018-11-11T09:38:46.659Z,7960.00
2018-11-11T09:39:46.603Z,8568.00
2018-11-11T09:40:46.578Z,8764.00
2018-11-11T09:41:46.561Z,8256.00
2018-11-11T09:42:46.598Z,7532.00
2018-11-11T09:43:46.599Z,6884.00
2018-11-11T09:44:46.558Z,6776.00
2018-11-11T09:45:46.526Z,7160.00
2018-11-11T09:46:46.634Z,7504.00
2018-11-11T09:47:46.550Z,8012.00
2018-11-11T09:48:46.489Z,8336.00
2018-11-11T09:49:46.505Z,8340.00
2018-11-11T09:50:46.475Z,8600.00
2018-11-11T09:51:46.456Z,8720.00
2018-11-11T09:52:46.603Z,8160.00
2018-11-11T09:53:46.500Z,7872.00
2018-11-11T09:54:46.455Z,7844.00
2018-11-11T09:55:46.433Z,7264.00
2018-11-11T09:56:46.407Z,7084.00
2018-11-11T09:57:46.481Z,7468.00
2018-11-11T09:58:46.497Z,8176.00
2018-11-11T09:59:46.474Z,8700.00
2018-11-11T10:00:46.372Z,8480.00
2018-11-11T10:01:46.429Z,8160.00
2018-11-11T10:02:46.375Z,7300.00
2018-11-11T10:03:46.319Z,6520.00
2018-11-11T10:04:46.368Z,6452.00
2018-11-11T10:05:46.325Z,6148.00
2018-11-11T10:06:54.885Z,5976.00
2018-11-11T10:07:46.275Z,6080.00
2018-11-11T10:08:54.336Z,6160.00
2018-11-11T10:11:02.969Z,6756.00
2018-11-11T10:12:02.938Z,6984.00
2018-11-11T10:13:02.933Z,7196.00
2018-11-11T10:14:02.956Z,6624.00
2018-11-11T10:15:02.910Z,6404.00
2018-11-11T10:16:02.908Z,7040.00
2018-11-11T10:17:02.920Z,7600.00
2018-11-11T10:18:02.875Z,9188.00
2018-11-11T10:19:02.866Z,12556.00
2018-11-11T10:20:02.923Z,14164.00
2018-11-11T10:21:02.865Z,13684.00
2018-11-11T10:22:02.848Z,13192.00
2018-11-11T10:23:02.830Z,12124.00
2018-11-11T10:24:02.818Z,11260.00
2018-11-11T10:25:02.799Z,11004.00
2018-11-11T10:26:02.804Z,11652.00
2018-11-11T10:27:02.797Z,11552.00
2018-11-11T10:28:02.772Z,11528.00
2018-11-11T10:29:02.781Z,11372.00
2018-11-11T10:30:02.747Z,10548.00
2018-11-11T10:31:02.752Z,9800.00
2018-11-11T10:32:02.730Z,9848.00
2018-11-11T10:33:02.715Z,9876.00
2018-11-11T10:34:02.713Z,10064.00
2018-11-11T10:35:02.693Z,9212.00
2018-11-11T10:36:02.697Z,8356.00
2018-11-11T10:37:02.674Z,7984.00
2018-11-11T10:38:02.662Z,7236.00
2018-11-11T10:39:02.705Z,6624.00
2018-11-11T10:40:02.677Z,6336.00
2018-11-11T10:41:02.645Z,6592.00
2018-11-11T10:42:02.621Z,6396.00
2018-11-11T10:43:02.610Z,6336.00
2018-11-11T10:44:02.601Z,6060.00
2018-11-11T10:45:02.591Z,5680.00
2018-11-11T10:46:02.636Z,5732.00
2018-11-11T10:47:02.564Z,5444.00
2018-11-11T10:48:02.556Z,5412.00
2018-11-11T10:49:02.546Z,5636.00
2018-11-11T10:50:02.535Z,6092.00
2018-11-11T10:51:02.522Z,6452.00
2018-11-11T10:52:02.554Z,6928.00
2018-11-11T10:53:02.502Z,7380.00
2018-11-11T10:54:02.493Z,8076.00
2018-11-11T10:55:02.480Z,8588.00
2018-11-11T10:56:02.469Z,9052.00
2018-11-11T10:57:02.473Z,9168.00
2018-11-11T10:58:02.466Z,8424.00
2018-11-11T10:59:02.439Z,7768.00
2018-11-11T11:00:02.484Z,7700.00
2018-11-11T11:01:02.415Z,8028.00
2018-11-11T11:02:02.421Z,8880.00
2018-11-11T11:03:02.397Z,9284.00
2018-11-11T11:04:02.413Z,9376.00
2018-11-11T11:05:02.381Z,9364.00
2018-11-11T11:06:02.427Z,9504.00
2018-11-11T11:07:02.365Z,9336.00
2018-11-11T11:08:02.340Z,9240.00
2018-11-11T11:09:02.333Z,9684.00
2018-11-11T11:10:02.326Z,9852.00
2018-11-11T11:11:02.311Z,9616.00
2018-11-11T11:12:02.310Z,9012.00
2018-11-11T11:13:02.286Z,8460.00
2018-11-11T11:14:02.289Z,8164.00
2018-11-11T11:15:02.264Z,7652.00
2018-11-11T11:16:02.268Z,7340.00
2018-11-11T11:17:02.262Z,7456.00
2018-11-11T11:18:02.236Z,7952.00
2018-11-11T11:19:02.227Z,8592.00
2018-11-11T11:20:02.210Z,9472.00
2018-11-11T11:21:02.200Z,10044.00
2018-11-11T11:22:02.219Z,9664.00
2018-11-11T11:23:02.358Z,9368.00
2018-11-11T11:24:02.172Z,9104.00
2018-11-11T11:25:02.157Z,9156.00
2018-11-11T11:26:02.148Z,9708.00
2018-11-11T11:27:02.165Z,10236.00
2018-11-11T11:28:02.141Z,10932.00
2018-11-11T11:29:02.117Z,10988.00
2018-11-11T11:30:02.103Z,11544.00
2018-11-11T11:31:02.089Z,13588.00
2018-11-11T11:32:02.144Z,14840.00
2018-11-11T11:33:02.069Z,15436.00
2018-11-11T11:34:02.086Z,16672.00
2018-11-11T11:35:02.067Z,17888.00
2018-11-11T11:36:02.039Z,16832.00
2018-11-11T11:37:02.037Z,15960.00
2018-11-11T11:38:02.047Z,15076.00
2018-11-11T11:39:02.009Z,13692.00
2018-11-11T11:40:01.994Z,12824.00
2018-11-11T11:41:02.059Z,12632.00
2018-11-11T11:42:02.001Z,13272.00
2018-11-11T11:43:01.959Z,13776.00
2018-11-11T11:44:02.017Z,14196.00
2018-11-11T11:45:01.976Z,15132.00
2018-11-11T11:46:01.929Z,14056.00
2018-11-11T11:47:01.931Z,12880.00
2018-11-11T11:48:01.924Z,12608.00
2018-11-11T11:49:01.897Z,13520.00
2018-11-11T11:50:01.966Z,14180.00
2018-11-11T11:51:01.880Z,15340.00
2018-11-11T11:52:01.923Z,15056.00
2018-11-11T11:53:01.897Z,14508.00
2018-11-11T11:54:01.847Z,14232.00
2018-11-11T11:55:01.837Z,14032.00
2018-11-11T11:56:01.825Z,14484.00
2018-11-11T11:57:01.813Z,14908.00
2018-11-11T11:58:01.869Z,14516.00
2018-11-11T11:59:01.795Z,13192.00
2018-11-11T12:00:01.790Z,13468.00
2018-11-11T12:01:01.772Z,13408.00
2018-11-11T12:02:01.789Z,13288.00
2018-11-11T12:03:01.765Z,12296.00
2018-11-11T12:04:01.741Z,12116.00
2018-11-11T12:05:01.728Z,12312.00
2018-11-11T12:06:01.721Z,12136.00
2018-11-11T12:07:01.706Z,11772.00
2018-11-11T12:08:01.710Z,11432.00
2018-11-11T12:09:01.749Z,11512.00
2018-11-11T12:10:01.676Z,11700.00
2018-11-11T12:11:01.662Z,11976.00
2018-11-11T12:12:01.682Z,12008.00
2018-11-11T12:13:01.656Z,12004.00
2018-11-11T12:14:01.634Z,12808.00
2018-11-11T12:15:01.625Z,13420.00
2018-11-11T12:16:01.611Z,14500.00
2018-11-11T12:17:01.614Z,14488.00
2018-11-11T12:18:01.626Z,12780.00
2018-11-11T12:19:01.583Z,11536.00
2018-11-11T12:20:01.572Z,12740.00
2018-11-11T12:21:01.556Z,13008.00
2018-11-11T12:22:01.541Z,13104.00
2018-11-11T12:23:01.583Z,13256.00
2018-11-11T12:24:01.552Z,14616.00
2018-11-11T12:25:01.509Z,13492.00
2018-11-11T12:26:01.499Z,12908.00
2018-11-11T12:27:01.488Z,12792.00
2018-11-11T12:28:01.490Z,14128.00
2018-11-11T12:29:01.463Z,14892.00
2018-11-11T12:30:01.472Z,13812.00
2018-11-11T12:31:01.484Z,13152.00
2018-11-11T12:32:01.430Z,13696.00
2018-11-11T12:33:01.430Z,13604.00
2018-11-11T12:34:01.408Z,12272.00
2018-11-11T12:35:01.453Z,11396.00
2018-11-11T12:36:01.400Z,11924.00
2018-11-11T12:37:01.380Z,11308.00
2018-11-11T12:38:01.380Z,10936.00
2018-11-11T12:39:01.421Z,11880.00
2018-11-11T12:40:01.564Z,12300.00
2018-11-11T12:41:01.331Z,11292.00
2018-11-11T12:42:01.344Z,9232.00
2018-11-11T12:43:01.323Z,9220.00